createdAt,value
2019-05-17T00:00:27.396Z,0.00
2019-05-17T00:01:27.045Z,0.00
2019-05-17T00:02:26.711Z,0.00
2019-05-17T00:03:27.050Z,0.00
2019-05-17T00:04:27.010Z,0.00
2019-05-17T00:05:26.601Z,0.00
2019-05-17T00:06:27.585Z,0.00
2019-05-17T00:07:27.291Z,0.00
2019-05-17T00:08:33.944Z,0.00
2019-05-17T00:09:26.730Z,0.00
2019-05-17T00:10:26.511Z,0.00
2019-05-17T00:11:27.342Z,0.00
2019-05-17T00:12:27.133Z,0.00
2019-05-17T00:13:26.884Z,0.00
2019-05-17T00:14:27.150Z,0.00
2019-05-17T00:15:27.314Z,0.00
2019-05-17T00:16:26.834Z,0.00
2019-05-17T00:17:26.779Z,0.00
2019-05-17T00:18:26.562Z,0.00
2019-05-17T00:19:26.386Z,0.00
2019-05-17T00:20:26.713Z,0.00
2019-05-17T00:21:27.484Z,0.00
2019-05-17T00:22:27.003Z,0.00
2019-05-17T00:23:26.868Z,0.00
2019-05-17T00:24:26.608Z,0.00
2019-05-17T00:25:27.418Z,0.00
2019-05-17T00:26:26.909Z,0.00
2019-05-17T00:27:26.563Z,0.00
2019-05-17T00:28:26.880Z,0.00
2019-05-17T00:29:26.470Z,0.00
2019-05-17T00:30:26.672Z,0.00
2019-05-17T00:31:26.382Z,0.00
2019-05-17T00:32:27.504Z,0.00
2019-05-17T00:33:27.220Z,0.00
2019-05-17T00:34:27.057Z,0.00
2019-05-17T00:35:26.759Z,0.00
2019-05-17T00:36:26.904Z,0.00
2019-05-17T00:37:26.415Z,0.00
2019-05-17T00:38:27.445Z,0.00
2019-05-17T00:39:27.198Z,0.00
2019-05-17T00:40:27.030Z,0.00
2019-05-17T00:41:26.907Z,0.00
2019-05-17T00:42:26.442Z,0.00
2019-05-17T00:43:26.312Z,0.00
2019-05-17T00:44:27.191Z,0.00
2019-05-17T00:45:26.752Z,0.00
2019-05-17T00:46:26.679Z,0.00
2019-05-17T00:47:26.555Z,0.00
2019-05-17T00:48:26.482Z,0.00
2019-05-17T00:49:26.403Z,0.00
2019-05-17T00:50:27.558Z,0.00
2019-05-17T00:51:27.389Z,0.00
2019-05-17T00:52:27.221Z,0.00
2019-05-17T00:53:26.940Z,0.00
2019-05-17T00:54:26.913Z,0.00
2019-05-17T00:55:26.786Z,0.00
2019-05-17T00:56:26.643Z,0.00
2019-05-17T00:57:27.349Z,0.00
2019-05-17T00:58:26.333Z,0.00
2019-05-17T00:59:26.307Z,0.00
2019-05-17T01:00:27.863Z,0.00
2019-05-17T01:01:27.068Z,0.00
2019-05-17T01:02:26.980Z,0.00
2019-05-17T01:03:26.933Z,0.00
2019-05-17T01:04:27.623Z,0.00
2019-05-17T01:05:27.457Z,0.00
2019-05-17T01:06:27.545Z,0.00
2019-05-17T01:07:26.920Z,0.00
2019-05-17T01:08:26.568Z,0.00
2019-05-17T01:09:27.295Z,0.00
2019-05-17T01:10:27.209Z,0.00
2019-05-17T01:11:27.070Z,0.00
2019-05-17T01:12:27.225Z,0.00
2019-05-17T01:13:26.701Z,0.00
2019-05-17T01:14:26.567Z,0.00
2019-05-17T01:15:27.316Z,0.00
2019-05-17T01:16:27.224Z,0.00
2019-05-17T01:17:27.090Z,0.00
2019-05-17T01:18:26.927Z,0.00
2019-05-17T01:19:27.016Z,0.00
2019-05-17T01:20:27.592Z,0.00
2019-05-17T01:21:26.273Z,0.00
2019-05-17T01:22:26.238Z,0.00
2019-05-17T01:23:27.105Z,0.00
2019-05-17T01:24:27.452Z,0.00
2019-05-17T01:25:27.259Z,0.00
2019-05-17T01:26:26.691Z,0.00
2019-05-17T01:27:26.356Z,0.00
2019-05-17T01:28:26.912Z,0.00
2019-05-17T01:29:26.850Z,0.00
2019-05-17T01:30:26.611Z,0.00
2019-05-17T01:31:26.596Z,0.00
2019-05-17T01:32:26.623Z,0.00
2019-05-17T01:33:26.506Z,0.00
2019-05-17T01:34:27.259Z,0.00
2019-05-17T01:35:26.643Z,0.00
2019-05-17T01:36:26.354Z,0.00
2019-05-17T01:37:27.546Z,0.00
2019-05-17T01:38:26.906Z,0.00
2019-05-17T01:39:26.861Z,0.00
2019-05-17T01:40:26.437Z,0.00
2019-05-17T01:41:26.658Z,0.00
2019-05-17T01:42:26.475Z,0.00
2019-05-17T01:43:27.296Z,0.00
2019-05-17T01:44:27.231Z,0.00
2019-05-17T01:45:26.942Z,0.00
2019-05-17T01:46:26.523Z,0.00
2019-05-17T01:47:27.179Z,0.00
2019-05-17T01:48:27.057Z,0.00
2019-05-17T01:49:27.126Z,0.00
2019-05-17T01:50:26.599Z,0.00
2019-05-17T01:51:26.358Z,0.00
2019-05-17T01:52:27.195Z,0.00
2019-05-17T01:53:27.023Z,0.00
2019-05-17T01:54:26.909Z,0.00
2019-05-17T01:55:26.595Z,0.00
2019-05-17T01:56:26.234Z,0.00
2019-05-17T01:57:27.265Z,0.00
2019-05-17T01:58:26.980Z,0.00
2019-05-17T01:59:26.765Z,0.00
2019-05-17T02:00:26.547Z,0.00
2019-05-17T02:01:27.406Z,0.00
2019-05-17T02:02:26.991Z,0.00
2019-05-17T02:03:26.769Z,0.00
2019-05-17T02:04:26.818Z,0.00
2019-05-17T02:05:27.243Z,0.00
2019-05-17T02:06:26.992Z,0.00
2019-05-17T02:07:26.766Z,0.00
2019-05-17T02:08:26.474Z,0.00
2019-05-17T02:09:34.829Z,0.00
2019-05-17T02:10:27.024Z,0.00
2019-05-17T02:11:26.933Z,0.00
2019-05-17T02:12:26.716Z,0.00
2019-05-17T02:13:26.795Z,0.00
2019-05-17T02:14:26.733Z,0.00
2019-05-17T02:15:26.781Z,0.00
2019-05-17T02:16:26.715Z,0.00
2019-05-17T02:17:26.539Z,0.00
2019-05-17T02:18:26.626Z,0.00
2019-05-17T02:19:26.567Z,0.00
2019-05-17T02:20:27.391Z,0.00
2019-05-17T02:21:27.313Z,0.00
2019-05-17T02:22:27.073Z,0.00
2019-05-17T02:23:26.872Z,0.00
2019-05-17T02:24:27.373Z,0.00
2019-05-17T02:25:27.100Z,0.00
2019-05-17T02:26:26.661Z,0.00
2019-05-17T02:27:28.368Z,0.00
2019-05-17T02:28:24.778Z,0.00
2019-05-17T02:29:24.768Z,0.00
2019-05-17T02:30:24.755Z,0.00
2019-05-17T02:31:24.929Z,0.00
2019-05-17T02:32:24.733Z,0.00
2019-05-17T02:33:24.723Z,0.00
2019-05-17T02:34:24.765Z,0.00
2019-05-17T02:35:24.710Z,0.00
2019-05-17T02:36:24.688Z,0.00
2019-05-17T02:37:24.678Z,0.00
2019-05-17T02:38:24.670Z,0.00
2019-05-17T02:39:24.653Z,0.00
2019-05-17T02:40:24.642Z,0.00
2019-05-17T02:41:24.631Z,0.00
2019-05-17T02:42:24.630Z,0.00
2019-05-17T02:43:24.609Z,0.00
2019-05-17T02:44:24.620Z,0.00
2019-05-17T02:45:24.586Z,0.00
2019-05-17T02:46:24.574Z,0.00
2019-05-17T02:47:24.563Z,0.00
2019-05-17T02:48:24.550Z,0.00
2019-05-17T02:49:24.594Z,0.00
2019-05-17T02:50:24.528Z,0.00
2019-05-17T02:51:24.538Z,0.00
2019-05-17T02:52:24.506Z,0.00
2019-05-17T02:53:24.493Z,0.00
2019-05-17T02:54:24.482Z,0.00
2019-05-17T02:55:24.489Z,0.00
2019-05-17T02:56:24.460Z,0.00
2019-05-17T02:57:24.449Z,0.00
2019-05-17T02:58:24.442Z,0.00
2019-05-17T02:59:24.424Z,0.00
2019-05-17T03:00:24.420Z,0.00
2019-05-17T03:01:24.403Z,0.00
2019-05-17T03:02:27.992Z,0.00
2019-05-17T03:03:24.382Z,0.00
2019-05-17T03:04:24.422Z,0.00
2019-05-17T03:05:24.359Z,0.00
2019-05-17T03:06:24.346Z,0.00
2019-05-17T03:07:24.344Z,0.00
2019-05-17T03:08:24.324Z,0.00
2019-05-17T03:09:24.316Z,0.00
2019-05-17T03:10:28.753Z,0.00
2019-05-17T03:11:24.290Z,0.00
2019-05-17T03:12:24.280Z,0.00
2019-05-17T03:13:24.276Z,0.00
2019-05-17T03:14:24.257Z,0.00
2019-05-17T03:15:24.246Z,0.00
2019-05-17T03:16:24.235Z,0.00
2019-05-17T03:17:24.228Z,0.00
2019-05-17T03:18:24.212Z,0.00
2019-05-17T03:19:24.201Z,0.00
2019-05-17T03:20:24.192Z,0.00
2019-05-17T03:21:24.193Z,0.00
2019-05-17T03:22:24.166Z,0.00
2019-05-17T03:23:24.156Z,0.00
2019-05-17T03:24:24.149Z,0.00
2019-05-17T03:25:24.149Z,0.00
2019-05-17T03:26:24.121Z,0.00
2019-05-17T03:27:24.111Z,0.00
2019-05-17T03:28:24.099Z,0.00
2019-05-17T03:29:24.091Z,0.00
2019-05-17T03:30:25.896Z,0.00
2019-05-17T03:31:26.302Z,0.00
2019-05-17T03:32:26.544Z,0.00
2019-05-17T03:33:26.438Z,0.00
2019-05-17T03:34:26.621Z,0.00
2019-05-17T03:35:26.671Z,0.00
2019-05-17T03:36:25.954Z,0.00
2019-05-17T03:37:30.225Z,0.00
2019-05-17T03:38:23.990Z,0.00
2019-05-17T03:39:23.977Z,0.00
2019-05-17T03:40:47.405Z,0.00
2019-05-17T03:41:28.909Z,0.00
2019-05-17T03:42:23.945Z,0.00
2019-05-17T03:43:23.935Z,0.00
2019-05-17T03:44:23.923Z,0.00
2019-05-17T03:45:23.918Z,0.00
2019-05-17T03:46:23.901Z,0.00
2019-05-17T03:47:23.890Z,0.00
2019-05-17T03:48:23.878Z,0.00
2019-05-17T03:49:23.870Z,0.00
2019-05-17T03:50:23.860Z,0.00
2019-05-17T03:51:23.844Z,0.00
2019-05-17T03:52:23.841Z,0.00
2019-05-17T03:53:23.823Z,0.00
2019-05-17T03:54:23.819Z,0.00
2019-05-17T03:55:23.804Z,0.00
2019-05-17T03:56:23.801Z,0.00
2019-05-17T03:57:24.198Z,0.00
2019-05-17T03:58:23.839Z,0.00
2019-05-17T03:59:24.382Z,0.00
2019-05-17T04:00:23.750Z,0.00
2019-05-17T04:01:23.734Z,0.00
2019-05-17T04:02:23.741Z,0.00
2019-05-17T04:03:23.712Z,0.00
2019-05-17T04:04:23.701Z,0.00
2019-05-17T04:05:23.689Z,0.00
2019-05-17T04:06:24.086Z,5.63
2019-05-17T04:07:23.854Z,5.63
2019-05-17T04:08:23.656Z,5.63
2019-05-17T04:09:23.643Z,5.63
2019-05-17T04:10:23.633Z,5.63
2019-05-17T04:11:31.341Z,5.63
2019-05-17T04:12:23.611Z,5.63
2019-05-17T04:13:23.789Z,5.63
2019-05-17T04:14:23.586Z,5.63
2019-05-17T04:15:24.239Z,5.63
2019-05-17T04:16:23.959Z,5.63
2019-05-17T04:17:23.559Z,5.63
2019-05-17T04:18:23.759Z,5.63
2019-05-17T04:19:23.534Z,5.63
2019-05-17T04:20:23.524Z,5.63
2019-05-17T04:21:23.802Z,5.63
2019-05-17T04:22:24.019Z,5.63
2019-05-17T04:23:23.600Z,5.63
2019-05-17T04:24:23.493Z,5.63
2019-05-17T04:25:23.607Z,11.25
2019-05-17T04:26:23.503Z,5.63
2019-05-17T04:27:23.439Z,5.63
2019-05-17T04:28:23.434Z,5.63
2019-05-17T04:29:23.423Z,5.63
2019-05-17T04:30:23.622Z,5.63
2019-05-17T04:31:23.393Z,5.63
2019-05-17T04:32:23.646Z,11.25
2019-05-17T04:33:23.656Z,11.25
2019-05-17T04:34:23.359Z,11.25
2019-05-17T04:35:23.495Z,11.25
2019-05-17T04:36:23.337Z,11.25
2019-05-17T04:37:23.325Z,11.25
2019-05-17T04:38:23.837Z,11.25
2019-05-17T04:39:23.303Z,11.25
2019-05-17T04:40:23.412Z,16.88
2019-05-17T04:41:39.781Z,16.88
2019-05-17T04:42:23.272Z,16.88
2019-05-17T04:43:23.458Z,16.88
2019-05-17T04:44:23.339Z,22.50
2019-05-17T04:45:23.467Z,22.50
2019-05-17T04:46:23.730Z,22.50
2019-05-17T04:47:23.256Z,22.50
2019-05-17T04:48:23.509Z,28.13
2019-05-17T04:49:24.344Z,28.13
2019-05-17T04:50:23.330Z,28.13
2019-05-17T04:51:23.394Z,28.13
2019-05-17T04:52:23.153Z,33.75
2019-05-17T04:53:23.533Z,33.75
2019-05-17T04:54:23.134Z,33.75
2019-05-17T04:55:23.323Z,33.75
2019-05-17T04:56:23.114Z,33.75
2019-05-17T04:57:23.367Z,33.75
2019-05-17T04:58:23.460Z,28.13
2019-05-17T04:59:24.350Z,33.75
2019-05-17T05:00:23.065Z,33.75
2019-05-17T05:01:23.741Z,33.75
2019-05-17T05:02:23.732Z,33.75
2019-05-17T05:03:23.399Z,33.75
2019-05-17T05:04:23.018Z,33.75
2019-05-17T05:05:23.125Z,33.75
2019-05-17T05:06:23.455Z,33.75
2019-05-17T05:07:22.986Z,39.38
2019-05-17T05:08:22.978Z,45.00
2019-05-17T05:09:23.263Z,45.00
2019-05-17T05:10:22.973Z,50.63
2019-05-17T05:11:23.465Z,56.25
2019-05-17T05:12:23.072Z,56.25
2019-05-17T05:13:23.036Z,61.88
2019-05-17T05:14:23.431Z,61.88
2019-05-17T05:15:22.893Z,61.88
2019-05-17T05:16:22.909Z,61.88
2019-05-17T05:17:22.880Z,56.25
2019-05-17T05:18:22.862Z,56.25
2019-05-17T05:19:22.849Z,56.25
2019-05-17T05:20:22.836Z,56.25
2019-05-17T05:21:23.143Z,56.25
2019-05-17T05:22:22.822Z,50.63
2019-05-17T05:23:23.830Z,56.25
2019-05-17T05:24:22.794Z,56.25
2019-05-17T05:25:22.781Z,56.25
2019-05-17T05:26:22.771Z,56.25
2019-05-17T05:27:22.760Z,56.25
2019-05-17T05:28:22.744Z,56.25
2019-05-17T05:29:22.735Z,56.25
2019-05-17T05:30:22.767Z,56.25
2019-05-17T05:31:22.909Z,61.88
2019-05-17T05:32:22.699Z,67.50
2019-05-17T05:33:22.690Z,61.88
2019-05-17T05:34:22.677Z,67.50
2019-05-17T05:35:22.665Z,67.50
2019-05-17T05:36:22.654Z,73.13
2019-05-17T05:37:23.274Z,73.13
2019-05-17T05:38:22.636Z,78.75
2019-05-17T05:39:22.938Z,78.75
2019-05-17T05:40:22.608Z,73.13
2019-05-17T05:41:22.726Z,67.50
2019-05-17T05:42:22.586Z,67.50
2019-05-17T05:43:22.817Z,67.50
2019-05-17T05:44:22.566Z,67.50
2019-05-17T05:45:22.595Z,67.50
2019-05-17T05:46:22.624Z,73.13
2019-05-17T05:47:22.529Z,67.50
2019-05-17T05:48:22.519Z,67.50
2019-05-17T05:49:22.511Z,67.50
2019-05-17T05:50:22.495Z,84.38
2019-05-17T05:51:22.485Z,84.38
2019-05-17T05:52:22.482Z,84.38
2019-05-17T05:53:22.463Z,90.00
2019-05-17T05:54:22.670Z,90.00
2019-05-17T05:55:23.337Z,90.00
2019-05-17T05:56:22.430Z,95.63
2019-05-17T05:57:22.420Z,101.25
2019-05-17T05:58:23.967Z,106.88
2019-05-17T05:59:22.593Z,106.88
2019-05-17T06:00:22.385Z,112.50
2019-05-17T06:01:22.372Z,118.13
2019-05-17T06:02:22.365Z,129.38
2019-05-17T06:03:22.573Z,118.13
2019-05-17T06:04:22.442Z,112.50
2019-05-17T06:05:22.329Z,112.50
2019-05-17T06:06:22.315Z,118.13
2019-05-17T06:07:22.310Z,106.88
2019-05-17T06:08:22.894Z,101.25
2019-05-17T06:09:22.509Z,112.50
2019-05-17T06:10:22.271Z,123.75
2019-05-17T06:11:22.260Z,112.50
2019-05-17T06:12:27.712Z,118.13
2019-05-17T06:13:22.241Z,129.38
2019-05-17T06:14:22.227Z,135.00
2019-05-17T06:15:22.217Z,135.00
2019-05-17T06:16:22.802Z,129.38
2019-05-17T06:17:22.250Z,129.38
2019-05-17T06:18:22.794Z,135.00
2019-05-17T06:19:22.424Z,146.25
2019-05-17T06:20:22.473Z,157.50
2019-05-17T06:21:22.616Z,151.88
2019-05-17T06:22:22.503Z,146.25
2019-05-17T06:23:23.462Z,135.00
2019-05-17T06:24:22.570Z,135.00
2019-05-17T06:25:23.318Z,135.00
2019-05-17T06:26:23.718Z,129.38
2019-05-17T06:27:22.084Z,123.75
2019-05-17T06:28:22.402Z,118.13
2019-05-17T06:29:22.288Z,123.75
2019-05-17T06:30:22.156Z,123.75
2019-05-17T06:31:24.072Z,118.13
2019-05-17T06:32:22.715Z,112.50
2019-05-17T06:33:30.548Z,118.13
2019-05-17T06:34:22.432Z,112.50
2019-05-17T06:35:22.000Z,95.63
2019-05-17T06:36:21.988Z,95.63
2019-05-17T06:37:22.486Z,95.63
2019-05-17T06:38:22.421Z,95.63
2019-05-17T06:39:22.474Z,106.88
2019-05-17T06:40:21.941Z,118.13
2019-05-17T06:41:21.932Z,135.00
2019-05-17T06:42:37.039Z,135.00
2019-05-17T06:43:21.917Z,129.38
2019-05-17T06:44:21.920Z,123.75
2019-05-17T06:45:22.157Z,112.50
2019-05-17T06:46:22.096Z,112.50
2019-05-17T06:47:22.508Z,112.50
2019-05-17T06:48:22.475Z,101.25
2019-05-17T06:49:22.499Z,106.88
2019-05-17T06:50:23.640Z,112.50
2019-05-17T06:51:22.149Z,112.50
2019-05-17T06:52:22.539Z,123.75
2019-05-17T06:53:22.119Z,123.75
2019-05-17T06:54:21.789Z,123.75
2019-05-17T06:55:21.780Z,129.38
2019-05-17T06:56:22.985Z,151.88
2019-05-17T06:57:23.255Z,163.13
2019-05-17T06:58:22.352Z,180.00
2019-05-17T06:59:21.733Z,196.88
2019-05-17T07:00:23.933Z,241.88
2019-05-17T07:01:21.710Z,270.00
2019-05-17T07:02:21.704Z,286.88
2019-05-17T07:03:21.688Z,331.88
2019-05-17T07:04:21.677Z,371.25
2019-05-17T07:05:21.666Z,393.75
2019-05-17T07:06:21.698Z,399.38
2019-05-17T07:07:21.644Z,405.00
2019-05-17T07:08:21.634Z,410.63
2019-05-17T07:09:21.622Z,405.00
2019-05-17T07:10:21.612Z,388.13
2019-05-17T07:11:21.600Z,376.88
2019-05-17T07:12:21.605Z,388.13
2019-05-17T07:13:21.580Z,405.00
2019-05-17T07:14:21.570Z,410.63
2019-05-17T07:15:21.559Z,393.75
2019-05-17T07:16:21.549Z,365.63
2019-05-17T07:17:21.539Z,348.75
2019-05-17T07:18:21.534Z,337.50
2019-05-17T07:19:21.518Z,376.88
2019-05-17T07:20:21.518Z,427.50
2019-05-17T07:21:21.497Z,455.63
2019-05-17T07:22:21.486Z,438.75
2019-05-17T07:23:21.475Z,405.00
2019-05-17T07:24:21.472Z,376.88
2019-05-17T07:25:21.456Z,360.00
2019-05-17T07:26:21.451Z,337.50
2019-05-17T07:27:21.441Z,303.75
2019-05-17T07:28:21.432Z,275.63
2019-05-17T07:29:21.418Z,286.88
2019-05-17T07:30:21.406Z,270.00
2019-05-17T07:31:23.261Z,258.75
2019-05-17T07:32:21.390Z,241.88
2019-05-17T07:33:21.374Z,236.25
2019-05-17T07:34:21.363Z,213.75
2019-05-17T07:35:21.353Z,230.63
2019-05-17T07:36:21.343Z,292.50
2019-05-17T07:37:21.333Z,320.63
2019-05-17T07:38:21.322Z,320.63
2019-05-17T07:39:21.312Z,270.00
2019-05-17T07:40:21.305Z,292.50
2019-05-17T07:41:21.291Z,410.63
2019-05-17T07:42:21.301Z,472.50
2019-05-17T07:43:21.270Z,466.88
2019-05-17T07:44:21.260Z,427.50
2019-05-17T07:45:21.250Z,382.50
2019-05-17T07:46:21.248Z,315.00
2019-05-17T07:47:21.230Z,309.38
2019-05-17T07:48:21.219Z,320.63
2019-05-17T07:49:21.209Z,315.00
2019-05-17T07:50:21.199Z,343.13
2019-05-17T07:51:21.188Z,388.13
2019-05-17T07:52:21.180Z,433.13
2019-05-17T07:53:21.218Z,438.75
2019-05-17T07:54:21.159Z,376.88
2019-05-17T07:55:23.046Z,286.88
2019-05-17T07:56:21.137Z,247.50
2019-05-17T07:57:21.129Z,253.13
2019-05-17T07:58:21.553Z,247.50
2019-05-17T07:59:21.108Z,241.88
2019-05-17T08:00:21.098Z,275.63
2019-05-17T08:01:21.089Z,320.63
2019-05-17T08:02:21.077Z,331.88
2019-05-17T08:03:24.550Z,315.00
2019-05-17T08:04:21.057Z,388.13
2019-05-17T08:05:21.555Z,495.00
2019-05-17T08:06:21.042Z,489.38
2019-05-17T08:07:21.026Z,427.50
2019-05-17T08:08:21.061Z,416.25
2019-05-17T08:09:21.007Z,405.00
2019-05-17T08:10:20.996Z,466.88
2019-05-17T08:11:20.988Z,472.50
2019-05-17T08:12:20.975Z,461.25
2019-05-17T08:13:30.139Z,450.00
2019-05-17T08:14:29.948Z,416.25
2019-05-17T08:15:20.945Z,343.13
2019-05-17T08:16:20.938Z,354.38
2019-05-17T08:17:20.931Z,382.50
2019-05-17T08:18:20.970Z,320.63
2019-05-17T08:19:20.904Z,303.75
2019-05-17T08:20:20.894Z,382.50
2019-05-17T08:21:20.890Z,343.13
2019-05-17T08:22:20.874Z,292.50
2019-05-17T08:23:20.865Z,376.88
2019-05-17T08:24:20.854Z,421.88
2019-05-17T08:25:20.843Z,416.25
2019-05-17T08:26:20.834Z,416.25
2019-05-17T08:27:20.826Z,388.13
2019-05-17T08:28:21.577Z,393.75
2019-05-17T08:29:20.803Z,405.00
2019-05-17T08:30:20.962Z,410.63
2019-05-17T08:31:20.782Z,388.13
2019-05-17T08:32:20.950Z,354.38
2019-05-17T08:33:20.763Z,309.38
2019-05-17T08:34:20.753Z,264.38
2019-05-17T08:35:20.742Z,258.75
2019-05-17T08:36:20.734Z,264.38
2019-05-17T08:37:20.723Z,286.88
2019-05-17T08:38:20.712Z,292.50
2019-05-17T08:39:20.722Z,253.13
2019-05-17T08:40:20.693Z,236.25
2019-05-17T08:41:20.955Z,253.13
2019-05-17T08:42:20.676Z,247.50
2019-05-17T08:43:21.464Z,270.00
2019-05-17T08:44:20.651Z,281.25
2019-05-17T08:45:20.832Z,241.88
2019-05-17T08:46:20.631Z,258.75
2019-05-17T08:47:21.062Z,281.25
2019-05-17T08:48:20.804Z,303.75
2019-05-17T08:49:20.601Z,298.13
2019-05-17T08:50:20.590Z,298.13
2019-05-17T08:51:20.581Z,320.63
2019-05-17T08:52:20.580Z,320.63
2019-05-17T08:53:20.559Z,292.50
2019-05-17T08:54:20.558Z,331.88
2019-05-17T08:55:20.590Z,399.38
2019-05-17T08:56:20.673Z,360.00
2019-05-17T08:57:20.706Z,331.88
2019-05-17T08:58:21.551Z,343.13
2019-05-17T08:59:20.497Z,360.00
2019-05-17T09:00:20.879Z,337.50
2019-05-17T09:01:20.479Z,371.25
2019-05-17T09:02:20.465Z,393.75
2019-05-17T09:03:20.455Z,427.50
2019-05-17T09:04:20.446Z,433.13
2019-05-17T09:05:21.323Z,371.25
2019-05-17T09:06:20.424Z,399.38
2019-05-17T09:07:20.566Z,444.38
2019-05-17T09:08:20.694Z,382.50
2019-05-17T09:09:20.503Z,405.00
2019-05-17T09:10:20.903Z,427.50
2019-05-17T09:11:20.374Z,416.25
2019-05-17T09:12:20.743Z,433.13
2019-05-17T09:13:20.351Z,461.25
2019-05-17T09:14:21.496Z,405.00
2019-05-17T09:15:20.500Z,382.50
2019-05-17T09:16:20.320Z,365.63
2019-05-17T09:17:20.311Z,399.38
2019-05-17T09:18:20.791Z,410.63
2019-05-17T09:19:20.290Z,444.38
2019-05-17T09:20:20.594Z,421.88
2019-05-17T09:21:22.021Z,376.88
2019-05-17T09:22:20.259Z,337.50
2019-05-17T09:23:20.252Z,337.50
2019-05-17T09:24:20.239Z,360.00
2019-05-17T09:25:22.029Z,365.63
2019-05-17T09:26:20.218Z,320.63
2019-05-17T09:27:20.208Z,275.63
2019-05-17T09:28:20.578Z,253.13
2019-05-17T09:29:20.189Z,253.13
2019-05-17T09:30:20.514Z,247.50
2019-05-17T09:31:20.512Z,253.13
2019-05-17T09:32:20.348Z,253.13
2019-05-17T09:33:20.153Z,258.75
2019-05-17T09:34:20.272Z,281.25
2019-05-17T09:35:20.757Z,270.00
2019-05-17T09:36:20.599Z,247.50
2019-05-17T09:37:22.508Z,275.63
2019-05-17T09:38:20.466Z,337.50
2019-05-17T09:39:20.199Z,405.00
2019-05-17T09:40:20.212Z,433.13
2019-05-17T09:41:20.190Z,461.25
2019-05-17T09:42:20.983Z,562.50
2019-05-17T09:43:20.688Z,663.75
2019-05-17T09:44:20.700Z,663.75
2019-05-17T09:45:20.347Z,680.63
2019-05-17T09:46:20.011Z,658.13
2019-05-17T09:47:20.620Z,680.63
2019-05-17T09:48:19.994Z,697.50
2019-05-17T09:49:19.984Z,753.75
2019-05-17T09:50:20.175Z,736.88
2019-05-17T09:51:19.962Z,736.88
2019-05-17T09:52:20.207Z,781.88
2019-05-17T09:53:20.265Z,663.75
2019-05-17T09:54:19.934Z,596.25
2019-05-17T09:55:19.925Z,500.63
2019-05-17T09:56:20.673Z,466.88
2019-05-17T09:57:20.494Z,478.13
2019-05-17T09:58:21.633Z,483.75
2019-05-17T09:59:20.369Z,534.38
2019-05-17T10:00:20.857Z,607.50
2019-05-17T10:01:19.919Z,624.38
2019-05-17T10:02:20.361Z,675.00
2019-05-17T10:03:23.781Z,731.25
2019-05-17T10:04:20.010Z,697.50
2019-05-17T10:05:20.262Z,753.75
2019-05-17T10:06:20.223Z,703.13
2019-05-17T10:07:20.749Z,663.75
2019-05-17T10:08:19.805Z,658.13
2019-05-17T10:09:19.799Z,641.25
2019-05-17T10:10:20.381Z,697.50
2019-05-17T10:11:20.439Z,624.38
2019-05-17T10:12:20.367Z,624.38
2019-05-17T10:13:20.217Z,787.50
2019-05-17T10:14:27.628Z,871.88
2019-05-17T10:15:20.747Z,883.13
2019-05-17T10:16:20.239Z,826.88
2019-05-17T10:17:21.145Z,714.38
2019-05-17T10:18:20.126Z,624.38
2019-05-17T10:19:23.388Z,511.88
2019-05-17T10:20:20.052Z,455.63
2019-05-17T10:21:19.961Z,466.88
2019-05-17T10:22:20.092Z,534.38
2019-05-17T10:23:19.827Z,511.88
2019-05-17T10:24:23.968Z,528.75
2019-05-17T10:25:20.132Z,551.25
2019-05-17T10:26:19.911Z,540.00
2019-05-17T10:27:19.773Z,551.25
2019-05-17T10:28:20.525Z,585.00
2019-05-17T10:29:19.619Z,579.38
2019-05-17T10:30:20.894Z,585.00
2019-05-17T10:31:19.806Z,556.88
2019-05-17T10:32:20.542Z,534.38
2019-05-17T10:33:20.022Z,523.13
2019-05-17T10:34:20.324Z,500.63
2019-05-17T10:35:19.956Z,483.75
2019-05-17T10:36:20.249Z,399.38
2019-05-17T10:37:20.290Z,371.25
2019-05-17T10:38:19.675Z,427.50
2019-05-17T10:39:19.524Z,489.38
2019-05-17T10:40:20.824Z,478.13
2019-05-17T10:41:20.014Z,461.25
2019-05-17T10:42:20.969Z,472.50
2019-05-17T10:43:20.456Z,472.50
2019-05-17T10:44:19.850Z,483.75
2019-05-17T10:45:19.898Z,489.38
2019-05-17T10:46:20.529Z,472.50
2019-05-17T10:47:19.644Z,466.88
2019-05-17T10:48:21.198Z,466.88
2019-05-17T10:49:20.177Z,461.25
2019-05-17T10:50:20.609Z,444.38
2019-05-17T10:51:20.218Z,438.75
2019-05-17T10:52:20.320Z,433.13
2019-05-17T10:53:20.466Z,450.00
2019-05-17T10:54:20.669Z,461.25
2019-05-17T10:55:19.961Z,483.75
2019-05-17T10:56:20.555Z,500.63
2019-05-17T10:57:19.548Z,506.25
2019-05-17T10:58:21.336Z,517.50
2019-05-17T10:59:20.316Z,528.75
2019-05-17T11:00:19.817Z,534.38
2019-05-17T11:01:20.053Z,528.75
2019-05-17T11:02:19.766Z,528.75
2019-05-17T11:03:20.307Z,540.00
2019-05-17T11:04:19.773Z,534.38
2019-05-17T11:05:20.172Z,511.88
2019-05-17T11:06:19.742Z,483.75
2019-05-17T11:07:19.922Z,483.75
2019-05-17T11:08:19.754Z,466.88
2019-05-17T11:09:20.467Z,438.75
2019-05-17T11:10:19.537Z,450.00
2019-05-17T11:11:20.085Z,466.88
2019-05-17T11:12:19.212Z,427.50
2019-05-17T11:13:19.205Z,393.75
2019-05-17T11:14:19.194Z,376.88
2019-05-17T11:15:19.185Z,376.88
2019-05-17T11:16:19.178Z,393.75
2019-05-17T11:17:19.167Z,393.75
2019-05-17T11:18:19.157Z,376.88
2019-05-17T11:19:19.148Z,331.88
2019-05-17T11:20:19.139Z,298.13
2019-05-17T11:21:19.130Z,281.25
2019-05-17T11:22:19.120Z,264.38
2019-05-17T11:23:19.116Z,264.38
2019-05-17T11:24:19.103Z,264.38
2019-05-17T11:25:19.094Z,247.50
2019-05-17T11:26:19.085Z,247.50
2019-05-17T11:27:19.073Z,253.13
2019-05-17T11:28:19.064Z,258.75
2019-05-17T11:29:19.057Z,264.38
2019-05-17T11:30:19.043Z,275.63
2019-05-17T11:31:19.040Z,303.75
2019-05-17T11:32:19.025Z,309.38
2019-05-17T11:33:19.018Z,303.75
2019-05-17T11:34:19.005Z,303.75
2019-05-17T11:35:18.994Z,303.75
2019-05-17T11:36:18.986Z,326.25
2019-05-17T11:37:18.977Z,343.13
2019-05-17T11:38:18.965Z,360.00
2019-05-17T11:39:18.960Z,371.25
2019-05-17T11:40:18.945Z,393.75
2019-05-17T11:41:21.560Z,444.38
2019-05-17T11:42:18.924Z,500.63
2019-05-17T11:43:18.914Z,511.88
2019-05-17T11:44:18.907Z,489.38
2019-05-17T11:45:27.259Z,461.25
2019-05-17T11:46:18.887Z,489.38
2019-05-17T11:47:18.875Z,483.75
2019-05-17T11:48:18.868Z,438.75
2019-05-17T11:49:18.856Z,433.13
2019-05-17T11:50:18.848Z,478.13
2019-05-17T11:51:18.840Z,500.63
2019-05-17T11:52:18.827Z,483.75
2019-05-17T11:53:18.841Z,495.00
2019-05-17T11:54:18.810Z,562.50
2019-05-17T11:55:18.802Z,618.75
2019-05-17T11:56:18.787Z,669.38
2019-05-17T11:57:18.778Z,714.38
2019-05-17T11:58:18.768Z,742.50
2019-05-17T11:59:18.759Z,731.25
2019-05-17T12:00:18.751Z,697.50
2019-05-17T12:01:18.741Z,691.88
2019-05-17T12:02:21.369Z,725.63
2019-05-17T12:03:18.723Z,759.38
2019-05-17T12:04:18.713Z,765.00
2019-05-17T12:05:18.711Z,787.50
2019-05-17T12:06:18.696Z,821.25
2019-05-17T12:07:18.687Z,759.38
2019-05-17T12:08:18.678Z,691.88
2019-05-17T12:09:18.669Z,714.38
2019-05-17T12:10:18.659Z,686.25
2019-05-17T12:11:18.650Z,652.50
2019-05-17T12:12:18.655Z,618.75
2019-05-17T12:13:18.635Z,590.63
2019-05-17T12:14:18.625Z,630.00
2019-05-17T12:15:18.621Z,585.00
2019-05-17T12:16:18.609Z,500.63
2019-05-17T12:17:18.601Z,528.75
2019-05-17T12:18:18.591Z,506.25
2019-05-17T12:19:18.583Z,393.75
2019-05-17T12:20:18.575Z,281.25
2019-05-17T12:21:18.571Z,281.25
2019-05-17T12:22:18.568Z,348.75
2019-05-17T12:23:18.551Z,354.38
2019-05-17T12:24:18.541Z,461.25
2019-05-17T12:25:18.532Z,556.88
2019-05-17T12:26:18.525Z,573.75
2019-05-17T12:27:18.513Z,596.25
2019-05-17T12:28:18.505Z,601.88
2019-05-17T12:29:18.498Z,573.75
2019-05-17T12:30:18.488Z,506.25
2019-05-17T12:31:18.478Z,438.75
2019-05-17T12:32:18.470Z,376.88
2019-05-17T12:33:18.468Z,433.13
2019-05-17T12:34:18.451Z,534.38
2019-05-17T12:35:18.443Z,556.88
2019-05-17T12:36:18.435Z,540.00
2019-05-17T12:37:18.434Z,528.75
2019-05-17T12:38:18.415Z,495.00
2019-05-17T12:39:18.410Z,506.25
2019-05-17T12:40:18.398Z,551.25
2019-05-17T12:41:18.397Z,585.00
2019-05-17T12:42:18.387Z,590.63
2019-05-17T12:43:18.371Z,590.63
2019-05-17T12:44:18.365Z,585.00
2019-05-17T12:45:18.354Z,601.88
2019-05-17T12:46:18.348Z,624.38
2019-05-17T12:47:18.337Z,675.00
2019-05-17T12:48:18.328Z,697.50